Time;durP1;ratioP1;P1;durP2;ratioP2;P2;SDS_P1;SDS_P2;PMS_P1;PMS_P2;Temp;Humidity;BMP_temperature;BMP_pressure;BME280_temperature;BME280_humidity;BME280_pressure;Samples;Min_cycle;Max_cycle;Signal;HPM_P1;HPM_P2
2022/08/19 00:01:40;;;;;;;6.45;4.50;;;17.50;99.90;;;;;;5033286;28;20505;-70
2022/08/19 00:04:09;;;;;;;8.73;5.00;;;17.50;99.90;;;;;;5033201;28;20551;-70
2022/08/19 00:06:36;;;;;;;7.88;4.93;;;17.50;99.90;;;;;;5033076;28;20128;-70
2022/08/19 00:09:04;;;;;;;6.65;4.63;;;17.40;99.90;;;;;;5033119;28;20049;-70
2022/08/19 00:11:31;;;;;;;11.43;5.10;;;17.40;99.90;;;;;;5033307;28;20041;-70
2022/08/19 00:13:57;;;;;;;5.88;3.78;;;17.40;99.90;;;;;;5032945;28;20088;-70
2022/08/19 00:16:24;;;;;;;5.22;4.18;;;17.40;99.90;;;;;;5032908;28;20037;-70
2022/08/19 00:18:50;;;;;;;7.72;4.03;;;17.30;99.90;;;;;;5032903;28;20490;-70
2022/08/19 00:21:16;;;;;;;6.00;4.35;;;17.30;99.90;;;;;;5016392;28;20045;-70
2022/08/19 00:23:42;;;;;;;6.28;4.60;;;17.20;99.90;;;;;;5033079;28;20045;-70
2022/08/19 00:26:09;;;;;;;5.35;4.20;;;17.20;99.90;;;;;;5032719;28;20102;-70
2022/08/19 00:28:35;;;;;;;6.15;4.38;;;17.20;99.90;;;;;;5032709;28;20462;-70
2022/08/19 00:31:04;;;;;;;6.57;4.30;;;17.20;99.90;;;;;;5032705;28;20083;-70
2022/08/19 00:33:32;;;;;;;5.72;4.13;;;17.20;99.90;;;;;;5032806;28;20041;-70
2022/08/19 00:36:01;;;;;;;6.22;4.30;;;17.10;99.90;;;;;;5032599;28;20048;-70
2022/08/19 00:38:27;;;;;;;7.13;4.32;;;17.10;99.90;;;;;;5016033;28;20065;-70
2022/08/19 00:40:54;;;;;;;6.80;4.07;;;17.10;99.90;;;;;;5032784;28;20146;-70
2022/08/19 00:43:22;;;;;;;8.77;4.45;;;17.10;99.90;;;;;;5032464;28;20052;-70
2022/08/19 00:45:49;;;;;;;5.85;4.00;;;17.00;99.90;;;;;;5032668;28;20045;-70
2022/08/19 00:48:16;;;;;;;6.05;4.60;;;17.00;99.90;;;;;;5033634;28;20042;-70
2022/08/19 00:50:43;;;;;;;8.85;4.45;;;17.00;99.90;;;;;;5032317;28;20408;-70
2022/08/19 00:53:11;;;;;;;5.57;4.43;;;16.90;99.90;;;;;;5032498;28;20068;-70
2022/08/19 00:55:38;;;;;;;8.60;4.95;;;16.90;99.90;;;;;;5032225;28;20036;-70
2022/08/19 00:58:09;;;;;;;4.75;3.30;;;16.90;99.90;;;;;;5032093;28;20045;-70
2022/08/19 01:00:36;;;;;;;4.28;3.20;;;16.90;99.90;;;;;;5032261;28;20045;-70
2022/08/19 01:03:08;;;;;;;4.68;3.55;;;16.80;99.90;;;;;;5032176;28;20064;-70
2022/08/19 01:05:35;;;;;;;5.30;3.63;;;16.80;99.90;;;;;;5032209;28;20041;-70
2022/08/19 01:08:04;;;;;;;4.85;4.05;;;16.80;99.90;;;;;;5032285;28;20037;-70
2022/08/19 01:10:33;;;;;;;5.63;4.18;;;16.80;99.90;;;;;;5032072;28;20037;-70
2022/08/19 01:13:00;;;;;;;6.90;4.03;;;16.80;99.90;;;;;;5015563;28;20405;-70
2022/08/19 01:15:33;;;;;;;5.00;3.55;;;16.70;99.90;;;;;;5031958;28;20091;-70
2022/08/19 01:18:05;;;;;;;4.50;3.67;;;16.70;99.90;;;;;;5031956;28;20043;-70
2022/08/19 01:20:31;;;;;;;4.75;3.88;;;16.60;99.90;;;;;;5031989;28;20413;-70
2022/08/19 01:22:58;;;;;;;5.72;3.45;;;16.60;99.90;;;;;;5031920;28;20033;-70
2022/08/19 01:25:32;;;;;;;5.43;3.83;;;16.60;99.90;;;;;;5031891;28;20053;-70
2022/08/19 01:27:58;;;;;;;5.50;4.32;;;16.60;99.90;;;;;;5031822;28;20135;-70
2022/08/19 01:30:27;;;;;;;6.90;4.55;;;16.50;99.90;;;;;;5031834;28;20133;-70
2022/08/19 01:32:55;;;;;;;8.27;4.20;;;16.50;99.90;;;;;;5032095;28;20222;-70
2022/08/19 01:35:23;;;;;;;7.38;3.97;;;16.50;99.90;;;;;;5031729;28;20417;-70
2022/08/19 01:37:56;;;;;;;7.85;4.50;;;16.50;99.90;;;;;;5032758;28;20124;-70
2022/08/19 01:40:24;;;;;;;5.65;3.70;;;16.50;99.90;;;;;;5031750;28;20090;-70
2022/08/19 01:42:51;;;;;;;6.72;3.67;;;16.50;99.90;;;;;;5032020;28;20049;-70
2022/08/19 01:45:19;;;;;;;5.35;4.05;;;16.40;99.90;;;;;;5031719;28;20034;-70
2022/08/19 01:47:45;;;;;;;7.38;4.38;;;16.40;99.90;;;;;;5031602;28;20052;-70
2022/08/19 01:50:12;;;;;;;6.32;4.07;;;16.40;99.90;;;;;;5031929;28;20120;-70
2022/08/19 01:52:40;;;;;;;5.95;4.68;;;16.40;99.90;;;;;;5031926;28;20049;-70
2022/08/19 01:55:08;;;;;;;8.10;4.50;;;16.40;99.90;;;;;;5015055;28;20047;-70
2022/08/19 01:57:34;;;;;;;5.85;4.50;;;16.40;99.90;;;;;;5031793;28;20064;-70
2022/08/19 02:00:04;;;;;;;7.10;4.68;;;16.40;99.90;;;;;;5031581;28;20116;-70
2022/08/19 02:02:30;;;;;;;5.32;4.35;;;16.40;99.90;;;;;;5031588;28;20060;-70
2022/08/19 02:04:56;;;;;;;6.90;4.35;;;16.40;99.90;;;;;;5031491;28;20045;-70
2022/08/19 02:07:22;;;;;;;4.97;4.13;;;16.40;99.90;;;;;;5031726;28;20052;-70
2022/08/19 02:09:48;;;;;;;5.55;4.88;;;16.30;99.90;;;;;;5034347;28;20038;-70
2022/08/19 02:12:13;;;;;;;6.32;4.20;;;16.30;99.90;;;;;;5019244;28;20045;-70
2022/08/19 02:14:39;;;;;;;9.13;5.50;;;16.30;99.90;;;;;;5035210;28;20564;-70
2022/08/19 02:17:05;;;;;;;6.45;4.80;;;16.40;99.90;;;;;;5035434;28;20128;-70
2022/08/19 02:19:32;;;;;;;8.18;5.30;;;16.40;99.90;;;;;;5035412;28;20494;-70
2022/08/19 02:21:59;;;;;;;9.73;5.82;;;16.40;99.90;;;;;;5035129;28;20047;-70
2022/08/19 02:24:25;;;;;;;8.90;4.82;;;16.30;99.90;;;;;;5035051;28;20053;-70
2022/08/19 02:26:51;;;;;;;4.90;4.40;;;16.30;99.90;;;;;;5034955;28;20564;-70
2022/08/19 02:29:16;;;;;;;5.10;4.10;;;16.30;99.90;;;;;;5035231;28;20085;-70
2022/08/19 02:31:42;;;;;;;5.57;4.80;;;16.30;99.90;;;;;;5034943;28;20413;-70
2022/08/19 02:34:08;;;;;;;6.70;5.72;;;16.30;99.90;;;;;;5018469;28;20095;-70
2022/08/19 02:36:34;;;;;;;9.80;7.28;;;16.30;99.90;;;;;;5034892;28;20037;-70
2022/08/19 02:39:00;;;;;;;9.13;6.55;;;16.30;99.90;;;;;;5035117;28;20045;-70
2022/08/19 02:41:31;;;;;;;8.68;7.72;;;16.40;99.90;;;;;;5034746;28;20042;-70
2022/08/19 02:43:58;;;;;;;10.48;7.85;;;16.30;99.90;;;;;;5034743;28;20517;-70
2022/08/19 02:46:29;;;;;;;11.55;7.88;;;16.40;99.90;;;;;;5018393;28;20045;-70
2022/08/19 02:48:59;;;;;;;8.23;7.40;;;16.40;99.90;;;;;;5018982;28;20068;-70
2022/08/19 02:51:27;;;;;;;9.20;8.20;;;16.40;99.90;;;;;;5034548;28;20047;-70
2022/08/19 02:53:53;;;;;;;10.80;8.55;;;16.40;99.90;;;;;;5034694;28;20045;-70
2022/08/19 02:56:20;;;;;;;8.18;7.38;;;16.40;99.90;;;;;;5034470;28;20537;-70
2022/08/19 02:58:46;;;;;;;7.85;6.97;;;16.40;99.90;;;;;;5034697;28;20073;-70
2022/08/19 03:01:23;;;;;;;9.10;8.20;;;16.30;99.90;;;;;;5034376;28;20044;-70
2022/08/19 03:03:50;;;;;;;8.32;7.53;;;16.40;99.90;;;;;;5034367;28;20095;-70
2022/08/19 03:06:16;;;;;;;13.48;7.40;;;16.30;99.90;;;;;;5034221;28;20077;-70
2022/08/19 03:08:45;;;;;;;8.75;7.43;;;16.30;99.90;;;;;;5034527;28;20092;-70
2022/08/19 03:11:19;;;;;;;9.30;8.00;;;16.20;99.90;;;;;;5034214;28;20055;-70
2022/08/19 03:13:45;;;;;;;11.25;8.82;;;16.20;99.90;;;;;;5017681;28;20100;-70
2022/08/19 03:16:12;;;;;;;9.23;8.32;;;16.10;99.90;;;;;;5034049;28;20045;-70
2022/08/19 03:18:38;;;;;;;9.23;8.25;;;16.10;99.90;;;;;;5034035;28;20544;-70
2022/08/19 03:21:05;;;;;;;8.90;8.07;;;16.10;99.90;;;;;;5033627;28;20045;-70
2022/08/19 03:23:30;;;;;;;11.00;8.68;;;16.10;99.90;;;;;;5034225;28;20041;-70
2022/08/19 03:25:56;;;;;;;10.60;8.50;;;16.00;99.90;;;;;;5033918;28;20037;-70
2022/08/19 03:28:21;;;;;;;9.90;8.80;;;16.00;99.90;;;;;;5034084;28;20128;-70
2022/08/19 03:31:11;;;;;;;12.38;8.57;;;16.00;99.90;;;;;;5034969;28;20373;-70
2022/08/19 03:33:37;;;;;;;8.88;8.02;;;16.00;99.90;;;;;;5033789;28;20045;-70
2022/08/19 03:36:07;;;;;;;10.35;8.50;;;15.90;99.90;;;;;;5017209;28;20033;-70
2022/08/19 03:38:33;;;;;;;9.75;8.50;;;15.90;99.90;;;;;;5033761;28;20037;-70
2022/08/19 03:41:06;;;;;;;11.10;8.05;;;15.80;99.90;;;;;;5033679;28;20033;-70
2022/08/19 03:43:33;;;;;;;9.82;8.30;;;15.80;99.90;;;;;;5033701;28;20042;-70
2022/08/19 03:46:08;;;;;;;9.32;8.25;;;15.80;99.90;;;;;;5033560;28;20060;-70
2022/08/19 03:48:35;;;;;;;9.93;9.02;;;15.80;99.90;;;;;;5033821;28;20099;-70
2022/08/19 03:51:01;;;;;;;9.38;8.48;;;15.80;99.90;;;;;;5033487;28;20033;-70
2022/08/19 03:53:29;;;;;;;8.10;7.30;;;15.80;99.90;;;;;;5033642;28;20037;-70
2022/08/19 03:55:55;;;;;;;7.88;6.45;;;15.80;99.90;;;;;;5033387;28;20041;-70
2022/08/19 03:58:22;;;;;;;11.65;8.48;;;15.80;99.90;;;;;;5033236;28;20513;-70
2022/08/19 04:00:48;;;;;;;11.32;8.63;;;15.80;99.90;;;;;;5033562;28;20124;-70
2022/08/19 04:03:15;;;;;;;8.05;6.63;;;15.80;99.90;;;;;;5033289;28;20077;-70
2022/08/19 04:05:40;;;;;;;5.88;5.28;;;15.80;99.90;;;;;;5033215;28;20037;-70
2022/08/19 04:08:06;;;;;;;4.97;4.50;;;15.70;99.90;;;;;;5016584;28;20091;-70
2022/08/19 04:10:36;;;;;;;6.20;5.60;;;15.70;99.90;;;;;;5033085;28;20064;-70
2022/08/19 04:13:03;;;;;;;8.68;6.68;;;15.70;99.90;;;;;;5033095;28;20095;-70
2022/08/19 04:15:31;;;;;;;7.43;6.20;;;15.60;99.90;;;;;;5033200;28;20494;-70
2022/08/19 04:17:56;;;;;;;8.73;7.20;;;15.60;99.90;;;;;;5032844;28;20037;-70
2022/08/19 04:20:22;;;;;;;9.05;7.72;;;15.60;99.90;;;;;;5032838;28;20147;-70
2022/08/19 04:22:47;;;;;;;11.30;8.68;;;15.60;99.90;;;;;;5033113;28;20041;-70
2022/08/19 04:25:13;;;;;;;9.55;8.55;;;15.60;99.90;;;;;;5016379;28;20485;-70
2022/08/19 04:27:38;;;;;;;11.27;9.20;;;15.60;99.90;;;;;;5032921;28;20045;-70
2022/08/19 04:30:04;;;;;;;10.25;9.25;;;15.60;99.90;;;;;;5032959;28;20436;-70
2022/08/19 04:32:31;;;;;;;9.68;8.38;;;15.70;99.90;;;;;;5033130;28;20402;-70
2022/08/19 04:34:58;;;;;;;11.10;10.00;;;15.70;99.90;;;;;;5032586;28;20077;-70
2022/08/19 04:37:26;;;;;;;11.20;10.15;;;15.70;99.90;;;;;;5032297;28;20049;-70
2022/08/19 04:42:38;;;;;;;12.52;11.23;;;15.80;99.90;;;;;;5032782;28;20100;-70
2022/08/19 04:45:11;;;;;;;13.23;11.88;;;15.80;99.90;;;;;;5032459;28;20049;-70
2022/08/19 04:47:39;;;;;;;14.27;11.68;;;15.80;99.90;;;;;;5032458;28;20119;-70
2022/08/19 04:50:05;;;;;;;13.10;11.15;;;15.90;99.90;;;;;;5032359;28;20041;-70
2022/08/19 04:52:31;;;;;;;12.90;11.63;;;15.90;99.90;;;;;;5032553;28;20128;-70
2022/08/19 04:54:57;;;;;;;13.88;11.85;;;15.90;99.90;;;;;;5032540;28;20048;-70
2022/08/19 04:57:23;;;;;;;12.95;11.63;;;15.90;99.90;;;;;;5032457;28;20052;-70
2022/08/19 04:59:53;;;;;;;13.07;11.23;;;15.90;99.90;;;;;;5032198;28;20042;-70
2022/08/19 05:02:18;;;;;;;13.27;11.88;;;15.90;99.90;;;;;;5032205;28;20056;-70
2022/08/19 05:04:44;;;;;;;14.52;11.82;;;15.80;99.90;;;;;;5032114;28;20060;-70
2022/08/19 05:07:09;;;;;;;14.68;12.95;;;15.80;99.90;;;;;;5032032;28;20041;-70
2022/08/19 05:09:36;;;;;;;13.15;11.75;;;15.80;99.90;;;;;;5032052;28;20048;-70
2022/08/19 05:12:01;;;;;;;14.02;12.55;;;15.80;99.90;;;;;;5033267;28;20116;-70
2022/08/19 05:14:27;;;;;;;12.00;10.85;;;15.80;99.90;;;;;;5032097;28;20163;-70
2022/08/19 05:16:52;;;;;;;11.85;10.75;;;15.80;99.90;;;;;;5031935;28;20033;-70
2022/08/19 05:24:46;;;;;;;12.88;10.80;;;15.80;99.90;;;;;;5031917;28;20489;-70
2022/08/19 05:27:11;;;;;;;12.80;11.48;;;15.80;99.90;;;;;;5031788;28;20045;-70
2022/08/19 05:29:37;;;;;;;13.15;10.70;;;15.90;99.90;;;;;;5031852;28;20037;-70
2022/08/19 05:32:04;;;;;;;17.48;11.43;;;15.90;99.90;;;;;;5031851;28;20041;-70
2022/08/19 05:34:31;;;;;;;21.48;13.55;;;15.90;99.90;;;;;;5031752;28;20124;-70
2022/08/19 05:36:59;;;;;;;23.17;12.30;;;15.90;99.90;;;;;;5032102;28;20077;-70
2022/08/19 05:39:27;;;;;;;15.57;12.07;;;16.00;99.90;;;;;;5031993;28;20496;-70
2022/08/19 05:41:59;;;;;;;16.20;13.18;;;16.00;99.90;;;;;;5032831;28;20042;-70
2022/08/19 05:44:27;;;;;;;15.27;12.45;;;16.00;99.90;;;;;;5035873;28;20049;-70
2022/08/19 05:46:52;;;;;;;16.27;12.40;;;16.10;99.90;;;;;;5035709;28;20382;-70
2022/08/19 05:49:20;;;;;;;14.52;12.48;;;16.10;99.90;;;;;;5035727;28;20045;-70
2022/08/19 05:51:45;;;;;;;15.60;13.68;;;16.20;99.90;;;;;;5035978;28;20055;-70
2022/08/19 05:54:13;;;;;;;15.05;13.45;;;16.20;99.90;;;;;;5035808;28;20042;-70
2022/08/19 05:56:40;;;;;;;16.50;14.73;;;16.30;99.90;;;;;;5035590;28;20041;-70
2022/08/19 05:59:09;;;;;;;15.93;14.23;;;16.30;99.90;;;;;;5035551;28;20409;-70
2022/08/19 06:01:36;;;;;;;21.33;14.18;;;16.40;99.90;;;;;;5035754;28;20049;-70
2022/08/19 06:04:03;;;;;;;18.90;15.57;;;16.50;99.90;;;;;;5036789;28;20103;-70
2022/08/19 06:06:29;;;;;;;17.95;15.50;;;16.50;99.90;;;;;;5035354;28;20587;-70
2022/08/19 06:08:54;;;;;;;21.65;16.27;;;16.60;99.90;;;;;;5035645;28;20081;-69
2022/08/19 06:11:33;;;;;;;21.45;15.25;;;16.60;99.90;;;;;;5035598;28;20405;-70
2022/08/19 06:14:04;;;;;;;21.00;14.73;;;16.70;99.90;;;;;;5035289;28;20042;-70
2022/08/19 06:16:31;;;;;;;18.40;14.23;;;16.70;99.90;;;;;;5035212;28;20049;-70
2022/08/19 06:19:00;;;;;;;19.52;14.95;;;16.80;99.90;;;;;;5035189;28;20048;-70
2022/08/19 06:21:27;;;;;;;20.35;16.02;;;16.90;99.90;;;;;;5035409;28;20041;-70
2022/08/19 06:23:54;;;;;;;19.20;15.85;;;17.00;99.90;;;;;;5035131;28;20046;-70
2022/08/19 06:26:21;;;;;;;21.45;16.27;;;17.00;99.90;;;;;;5018504;28;20041;-70
2022/08/19 06:28:48;;;;;;;19.30;16.23;;;17.10;99.90;;;;;;5035043;28;20045;-69
2022/08/19 06:31:20;;;;;;;19.52;14.90;;;17.20;99.90;;;;;;5035246;28;20055;-69
2022/08/19 06:33:47;;;;;;;20.05;15.82;;;17.30;99.90;;;;;;5035183;28;20045;-69
2022/08/19 06:36:21;;;;;;;19.13;14.10;;;17.40;99.90;;;;;;5034750;28;20057;-70
2022/08/19 06:38:47;;;;;;;19.92;15.40;;;17.50;99.90;;;;;;5034868;28;20037;-70
2022/08/19 06:41:13;;;;;;;19.05;15.27;;;17.50;99.90;;;;;;5035062;28;20044;-70
2022/08/19 06:43:41;;;;;;;22.23;15.48;;;17.60;99.90;;;;;;5034684;28;20517;-70
2022/08/19 06:46:11;;;;;;;18.55;14.65;;;17.70;99.90;;;;;;5034699;28;20545;-70
2022/08/19 06:48:37;;;;;;;21.17;15.25;;;17.90;99.90;;;;;;5034923;28;20497;-70
2022/08/19 06:51:05;;;;;;;20.38;16.08;;;18.00;99.90;;;;;;5034626;28;20061;-70
2022/08/19 06:53:32;;;;;;;22.55;16.05;;;18.00;99.90;;;;;;5034421;28;20077;-70
2022/08/19 06:56:01;;;;;;;18.73;15.60;;;18.10;99.90;;;;;;5033886;28;20049;-70
2022/08/19 06:58:31;;;;;;;22.70;15.00;;;18.30;99.90;;;;;;5034396;28;20563;-70
2022/08/19 07:01:00;;;;;;;20.70;14.82;;;18.40;99.90;;;;;;5034488;28;20080;-70
2022/08/19 07:03:30;;;;;;;15.90;14.18;;;18.50;99.90;;;;;;5034402;28;20041;-70
2022/08/19 07:05:56;;;;;;;17.58;14.90;;;18.60;99.90;;;;;;5034415;28;20052;-70
2022/08/19 07:08:21;;;;;;;17.27;14.48;;;18.70;99.90;;;;;;5034501;28;20046;-70
2022/08/19 07:10:48;;;;;;;19.17;14.73;;;18.80;99.90;;;;;;5034239;28;20413;-70
2022/08/19 07:13:14;;;;;;;19.58;14.75;;;18.90;99.90;;;;;;5034433;28;20053;-70
2022/08/19 07:15:40;;;;;;;18.20;13.82;;;19.00;99.90;;;;;;5034138;28;20042;-70
2022/08/19 07:18:06;;;;;;;18.42;13.65;;;19.10;99.90;;;;;;5034001;28;20565;-70
2022/08/19 07:20:32;;;;;;;18.17;12.95;;;19.20;99.90;;;;;;5034085;28;20235;-70
2022/08/19 07:22:58;;;;;;;17.55;14.20;;;19.20;99.90;;;;;;5034076;28;20045;-70
2022/08/19 07:25:24;;;;;;;17.27;13.75;;;19.30;99.90;;;;;;5034002;28;20374;-69
2022/08/19 07:27:50;;;;;;;15.43;13.80;;;19.40;99.90;;;;;;5033939;28;20064;-70
2022/08/19 07:30:16;;;;;;;15.82;13.40;;;19.50;99.90;;;;;;5033972;28;20116;-70
2022/08/19 07:32:42;;;;;;;22.67;14.07;;;19.60;99.90;;;;;;5033927;28;20048;-70
2022/08/19 07:35:09;;;;;;;16.13;12.73;;;19.70;99.90;;;;;;5033775;28;20053;-70
2022/08/19 07:37:36;;;;;;;16.30;13.68;;;19.80;99.90;;;;;;5033573;28;20545;-70
2022/08/19 07:40:04;;;;;;;16.50;13.02;;;20.00;99.90;;;;;;5033744;28;20068;-70
2022/08/19 07:42:30;;;;;;;14.48;12.93;;;20.10;99.90;;;;;;5033979;28;20041;-70
2022/08/19 07:44:57;;;;;;;14.52;12.85;;;20.10;99.90;;;;;;5033677;28;20045;-70
2022/08/19 07:47:23;;;;;;;13.95;12.48;;;20.20;99.90;;;;;;5033748;28;20053;-70
2022/08/19 07:49:49;;;;;;;13.95;12.27;;;20.30;99.90;;;;;;5033532;28;20132;-70
2022/08/19 07:52:16;;;;;;;13.43;11.93;;;20.40;99.90;;;;;;5033505;28;20183;-70
2022/08/19 07:54:42;;;;;;;12.30;11.00;;;20.50;99.90;;;;;;5033527;28;20041;-70
2022/08/19 07:57:08;;;;;;;11.65;10.55;;;20.70;99.90;;;;;;5033260;28;20091;-70
2022/08/19 07:59:35;;;;;;;12.90;10.52;;;20.80;99.90;;;;;;5033692;28;20048;-70
2022/08/19 08:02:00;;;;;;;13.95;10.88;;;20.90;99.90;;;;;;5034572;28;20114;-70
2022/08/19 08:09:56;;;;;;;15.43;10.23;;;21.40;99.90;;;;;;5033144;28;20553;-70
2022/08/19 08:12:28;;;;;;;11.30;9.38;;;21.50;99.90;;;;;;5033357;28;20120;-70
2022/08/19 08:14:56;;;;;;;14.15;9.30;;;21.70;99.90;;;;;;5016514;28;20042;-71
2022/08/19 08:17:25;;;;;;;12.90;10.77;;;21.80;99.90;;;;;;5034461;28;20049;-71
2022/08/19 08:19:50;;;;;;;16.75;10.23;;;22.00;99.90;;;;;;5016711;28;20117;-71
2022/08/19 08:25:07;;;;;;;14.20;12.60;;;22.30;99.90;;;;;;5032836;28;20081;-70
2022/08/19 08:27:36;;;;;;;16.40;13.13;;;22.40;99.90;;;;;;5033807;28;20064;-71
2022/08/19 08:30:04;;;;;;;16.02;14.38;;;22.50;99.90;;;;;;5032775;28;20095;-71
2022/08/19 08:32:30;;;;;;;17.48;14.63;;;22.70;99.90;;;;;;5032754;28;20046;-71
2022/08/19 08:34:55;;;;;;;18.40;15.13;;;22.80;99.90;;;;;;5032723;28;20151;-71
2022/08/19 08:37:22;;;;;;;18.70;13.82;;;22.90;99.90;;;;;;5032704;28;20512;-71
2022/08/19 08:39:47;;;;;;;15.75;14.13;;;23.00;99.90;;;;;;5032586;28;20050;-70
2022/08/19 08:42:30;;;;;;;18.83;13.27;;;23.10;99.90;;;;;;5032555;28;20042;-70
2022/08/19 08:45:05;;;;;;;16.98;13.35;;;23.30;99.90;;;;;;5032488;28;20414;-71
2022/08/19 08:47:35;;;;;;;17.25;13.15;;;23.50;99.90;;;;;;5032686;28;20052;-70
2022/08/19 08:50:11;;;;;;;16.98;13.15;;;23.60;99.90;;;;;;5015973;28;20037;-71
2022/08/19 08:52:42;;;;;;;13.88;12.48;;;23.80;99.90;;;;;;5032778;28;20050;-71
2022/08/19 08:55:16;;;;;;;15.57;14.10;;;24.00;99.90;;;;;;5032375;28;20037;-71
2022/08/19 08:57:48;;;;;;;15.85;13.27;;;24.00;99.90;;;;;;5032316;28;20048;-71
2022/08/19 09:00:21;;;;;;;13.90;11.95;;;24.10;99.90;;;;;;5032491;28;20045;-71
2022/08/19 09:02:48;;;;;;;13.63;12.25;;;24.30;99.90;;;;;;5032454;28;20034;-71
2022/08/19 09:05:14;;;;;;;15.02;13.63;;;24.40;99.90;;;;;;5032168;28;20041;-71
2022/08/19 09:07:59;;;;;;;14.27;12.55;;;24.50;99.90;;;;;;5032272;28;20041;-71
2022/08/19 09:10:43;;;;;;;15.63;13.60;;;24.60;99.90;;;;;;5032210;28;20049;-70
2022/08/19 09:13:12;;;;;;;13.80;12.10;;;24.80;99.90;;;;;;5032235;28;20042;-70
2022/08/19 09:15:49;;;;;;;13.52;11.38;;;24.90;99.90;;;;;;5032191;28;20048;-70
2022/08/19 09:18:16;;;;;;;11.00;10.00;;;25.10;99.90;;;;;;5032073;28;20043;-71
2022/08/19 09:20:42;;;;;;;12.32;10.80;;;25.20;99.90;;;;;;5032150;28;20045;-71
2022/08/19 09:23:09;;;;;;;12.50;10.30;;;25.30;99.90;;;;;;5032000;28;20072;-71
2022/08/19 09:25:34;;;;;;;10.05;9.05;;;25.50;99.90;;;;;;5015780;28;20128;-71
2022/08/19 09:28:03;;;;;;;16.63;15.00;;;25.60;99.90;;;;;;5031841;28;20148;-71
2022/08/19 09:30:33;;;;;;;19.00;14.40;;;25.80;99.90;;;;;;5015670;28;20043;-71
2022/08/19 09:32:59;;;;;;;15.45;13.82;;;25.90;99.90;;;;;;5031865;28;20120;-71
2022/08/19 09:35:28;;;;;;;13.45;12.05;;;25.90;99.90;;;;;;5031821;28;20049;-70
2022/08/19 09:37:55;;;;;;;13.38;11.95;;;26.00;99.90;;;;;;5031871;28;20060;-72
2022/08/19 09:40:21;;;;;;;12.35;11.15;;;26.10;99.90;;;;;;5031840;28;20525;-71
2022/08/19 09:42:47;;;;;;;10.52;9.52;;;26.20;99.90;;;;;;5032291;28;20159;-71
2022/08/19 09:45:15;;;;;;;14.20;10.20;;;26.40;99.90;;;;;;5032031;28;20069;-71
2022/08/19 09:47:41;;;;;;;11.95;9.43;;;26.50;99.90;;;;;;5032105;28;20049;-71
2022/08/19 09:50:09;;;;;;;21.13;11.02;;;26.70;99.90;;;;;;5031660;28;20519;-72
2022/08/19 09:52:38;;;;;;;12.35;11.23;;;26.80;99.90;;;;;;5031943;28;20045;-70
2022/08/19 09:55:09;;;;;;;13.13;10.82;;;26.90;99.90;;;;;;5031652;28;20083;-71
2022/08/19 09:57:35;;;;;;;12.02;10.80;;;27.00;99.90;;;;;;5015236;28;20049;-71
2022/08/19 10:00:02;;;;;;;11.95;9.65;;;27.10;99.90;;;;;;5015389;28;20044;-71
2022/08/19 10:02:28;;;;;;;10.85;8.80;;;27.20;99.90;;;;;;5015329;28;20042;-71
2022/08/19 10:07:37;;;;;;;11.32;10.15;;;27.50;99.90;;;;;;5031459;28;20041;-71
2022/08/19 10:10:06;;;;;;;10.40;9.35;;;27.60;99.90;;;;;;5031811;28;20042;-71
2022/08/19 10:12:33;;;;;;;10.40;9.38;;;27.70;99.40;;;;;;5031538;28;20045;-71
2022/08/19 10:14:59;;;;;;;11.23;9.45;;;27.80;99.90;;;;;;5031505;28;20124;-71
2022/08/19 10:17:25;;;;;;;11.80;9.35;;;28.00;96.10;;;;;;5031371;28;20117;-71
2022/08/19 10:19:51;;;;;;;13.07;10.10;;;28.10;96.20;;;;;;5031534;28;20090;-71
2022/08/19 10:22:18;;;;;;;8.40;7.40;;;28.30;94.20;;;;;;5031363;28;20103;-71
2022/08/19 10:24:43;;;;;;;7.07;6.38;;;28.40;94.10;;;;;;5031674;28;20064;-71
2022/08/19 10:27:10;;;;;;;7.97;6.20;;;28.60;92.30;;;;;;5031503;28;20387;-72
2022/08/19 10:29:36;;;;;;;7.32;5.90;;;28.60;89.00;;;;;;5032219;28;20037;-71
2022/08/19 10:32:07;;;;;;;9.23;6.15;;;28.60;89.50;;;;;;5035000;28;20048;-71
2022/08/19 10:34:35;;;;;;;9.67;8.63;;;28.80;86.90;;;;;;5034959;28;20156;-71
2022/08/19 10:37:04;;;;;;;8.65;7.85;;;28.90;82.70;;;;;;5034867;28;20045;-71
2022/08/19 10:39:31;;;;;;;7.85;7.05;;;29.00;84.10;;;;;;5034850;28;20037;-70
2022/08/19 10:41:57;;;;;;;9.80;8.35;;;29.10;80.10;;;;;;5034779;28;20038;-70
2022/08/19 10:44:23;;;;;;;9.75;7.75;;;29.20;76.90;;;;;;5034679;28;20083;-70
2022/08/19 10:46:50;;;;;;;9.68;6.82;;;29.20;78.00;;;;;;5034590;28;20045;-70
2022/08/19 10:49:15;;;;;;;10.18;9.07;;;29.40;80.20;;;;;;5034600;28;20049;-70
2022/08/19 10:56:50;;;;;;;8.75;7.60;;;29.40;79.10;;;;;;5034496;28;20053;-70
2022/08/19 10:57:12;;;;;;;9.55;6.65;;;29.30;72.90;;;;;;5034652;28;20046;-70
2022/08/19 10:59:38;;;;;;;8.02;6.22;;;29.20;75.50;;;;;;5034557;28;20033;-70
2022/08/19 11:02:07;;;;;;;10.63;7.25;;;29.10;78.00;;;;;;5034455;28;20095;-70
2022/08/19 11:04:33;;;;;;;8.52;7.18;;;29.30;75.90;;;;;;5035930;28;20037;-70
2022/08/19 11:06:58;;;;;;;7.30;6.25;;;29.20;74.90;;;;;;5034368;28;20081;-70
2022/08/19 11:09:27;;;;;;;8.80;7.70;;;29.20;77.10;;;;;;5034274;28;20077;-67
2022/08/19 11:11:54;;;;;;;8.35;6.65;;;29.20;73.60;;;;;;5034331;28;20506;-68
2022/08/19 11:14:20;;;;;;;8.30;7.50;;;29.10;72.40;;;;;;5034164;28;20080;-68
2022/08/19 11:16:51;;;;;;;9.15;8.25;;;29.00;72.00;;;;;;5034101;28;20033;-68
2022/08/19 11:19:18;;;;;;;10.32;8.13;;;29.20;73.50;;;;;;5034316;28;20037;-68
2022/08/19 11:21:47;;;;;;;9.35;7.72;;;29.30;74.20;;;;;;5034152;28;20057;-68
2022/08/19 11:24:20;;;;;;;10.65;6.40;;;29.50;75.20;;;;;;5034349;28;20103;-68
2022/08/19 11:26:49;;;;;;;6.43;5.10;;;29.70;74.50;;;;;;5017654;28;20164;-68
2022/08/19 11:29:17;;;;;;;7.38;6.35;;;30.00;72.90;;;;;;5034226;28;20158;-68
2022/08/19 11:31:46;;;;;;;9.30;7.20;;;30.20;69.30;;;;;;5017402;28;20453;-68
2022/08/19 11:34:18;;;;;;;10.13;7.88;;;30.20;67.10;;;;;;5033793;28;20513;-68
2022/08/19 11:36:45;;;;;;;9.30;7.40;;;30.40;69.70;;;;;;5033644;28;20520;-68
2022/08/19 11:39:14;;;;;;;11.88;8.45;;;30.40;69.40;;;;;;5034015;28;20033;-68
2022/08/19 11:41:40;;;;;;;12.18;8.55;;;30.50;69.80;;;;;;5033445;28;20116;-68
2022/08/19 11:44:07;;;;;;;8.38;7.38;;;30.80;69.80;;;;;;5033665;28;20132;-68
2022/08/19 11:46:34;;;;;;;8.07;7.28;;;30.90;67.80;;;;;;5033580;28;20493;-68
2022/08/19 11:49:01;;;;;;;8.90;6.93;;;31.00;65.60;;;;;;5033559;28;20552;-67
2022/08/19 11:51:27;;;;;;;7.82;5.88;;;31.00;66.60;;;;;;5033567;28;20042;-67
2022/08/19 11:53:54;;;;;;;5.05;4.07;;;30.90;66.40;;;;;;5033430;28;20087;-67
2022/08/19 11:56:21;;;;;;;6.30;4.07;;;30.80;65.10;;;;;;5033652;28;20048;-68
2022/08/19 11:58:47;;;;;;;5.38;3.53;;;30.80;63.10;;;;;;5033427;28;20030;-68
2022/08/19 12:01:16;;;;;;;9.05;4.90;;;30.80;62.50;;;;;;5033368;28;20046;-68
2022/08/19 12:03:43;;;;;;;7.05;4.82;;;30.70;61.50;;;;;;5033346;28;20148;-68
2022/08/19 12:06:12;;;;;;;4.95;3.53;;;30.50;61.00;;;;;;5033197;28;20121;-68
2022/08/19 12:08:38;;;;;;;6.32;3.25;;;30.50;60.60;;;;;;5033461;28;20506;-68
2022/08/19 12:11:04;;;;;;;4.50;3.40;;;30.80;61.20;;;;;;5034420;28;20048;-68
2022/08/19 12:13:30;;;;;;;6.18;3.08;;;31.10;59.80;;;;;;5033108;28;20037;-68
2022/08/19 12:15:58;;;;;;;6.88;4.00;;;31.10;58.50;;;;;;5032957;28;20049;-68
2022/08/19 12:18:24;;;;;;;7.30;4.78;;;30.90;57.60;;;;;;5033204;28;20119;-68
2022/08/19 12:20:51;;;;;;;5.70;3.60;;;30.80;59.10;;;;;;5032945;28;20052;-68
2022/08/19 12:23:17;;;;;;;5.05;3.15;;;30.60;58.30;;;;;;5016503;28;20513;-68
2022/08/19 12:25:51;;;;;;;6.70;3.90;;;30.50;57.40;;;;;;5032878;28;20041;-68
2022/08/19 12:28:21;;;;;;;3.90;3.25;;;30.70;57.30;;;;;;5032777;28;20044;-68
2022/08/19 12:30:49;;;;;;;5.50;3.40;;;30.80;56.50;;;;;;5032839;28;20048;-68
2022/08/19 12:33:15;;;;;;;2.75;2.25;;;30.90;56.60;;;;;;5016510;28;20045;-68
2022/08/19 12:35:46;;;;;;;3.95;2.30;;;31.10;54.80;;;;;;5032671;28;20413;-68
2022/08/19 12:38:13;;;;;;;6.57;3.10;;;31.40;54.70;;;;;;5032554;28;20049;-68
2022/08/19 12:40:42;;;;;;;5.80;4.47;;;31.70;54.60;;;;;;5032623;28;20121;-68
2022/08/19 12:43:08;;;;;;;5.38;3.78;;;31.90;54.40;;;;;;5016072;28;20044;-68
2022/08/19 12:45:34;;;;;;;4.63;3.80;;;31.90;54.90;;;;;;5032759;28;20041;-68
2022/08/19 12:47:59;;;;;;;5.95;4.32;;;32.00;54.10;;;;;;5032319;28;20527;-68
2022/08/19 12:50:25;;;;;;;6.55;4.65;;;32.00;53.40;;;;;;5032477;28;20045;-68
2022/08/19 12:52:51;;;;;;;9.45;5.10;;;31.90;54.60;;;;;;5031779;28;20091;-68
2022/08/19 12:55:18;;;;;;;7.00;4.93;;;32.00;54.20;;;;;;5032315;28;20045;-68
2022/08/19 12:57:44;;;;;;;6.75;4.50;;;32.00;54.20;;;;;;5015830;28;20033;-68
2022/08/19 13:00:13;;;;;;;8.02;4.80;;;31.90;54.70;;;;;;5032554;28;20034;-68
2022/08/19 13:02:49;;;;;;;6.43;5.15;;;31.90;55.20;;;;;;5032452;28;20091;-68